sensor_id;sensor_type;location;lat;lon;timestamp;P1;durP1;ratioP1;P2;durP2;ratioP2
8964;SDS011;4517;49.020;12.066;2023-02-25T00:00:26;11.13;;;10.43;;
8964;SDS011;4517;49.020;12.066;2023-02-25T00:02:54;11.37;;;10.77;;
8964;SDS011;4517;49.020;12.066;2023-02-25T00:05:20;11.23;;;10.63;;
8964;SDS011;4517;49.020;12.066;2023-02-25T00:07:46;11.07;;;10.57;;
8964;SDS011;4517;49.020;12.066;2023-02-25T00:10:12;11.50;;;10.90;;
8964;SDS011;4517;49.020;12.066;2023-02-25T00:12:41;10.83;;;10.23;;
8964;SDS011;4517;49.020;12.066;2023-02-25T00:15:07;12.23;;;11.53;;
8964;SDS011;4517;49.020;12.066;2023-02-25T00:17:33;12.03;;;11.33;;
8964;SDS011;4517;49.020;12.066;2023-02-25T00:19:59;10.80;;;10.20;;
8964;SDS011;4517;49.020;12.066;2023-02-25T00:22:25;11.57;;;10.97;;
8964;SDS011;4517;49.020;12.066;2023-02-25T00:24:55;10.53;;;10.03;;
8964;SDS011;4517;49.020;12.066;2023-02-25T00:27:21;11.57;;;10.60;;
8964;SDS011;4517;49.020;12.066;2023-02-25T00:29:51;11.40;;;10.70;;
8964;SDS011;4517;49.020;12.066;2023-02-25T00:32:17;11.20;;;10.50;;
8964;SDS011;4517;49.020;12.066;2023-02-25T00:34:43;11.20;;;10.50;;
8964;SDS011;4517;49.020;12.066;2023-02-25T00:37:10;11.97;;;10.93;;
8964;SDS011;4517;49.020;12.066;2023-02-25T00:39:35;12.03;;;11.33;;
8964;SDS011;4517;49.020;12.066;2023-02-25T00:42:08;12.47;;;11.37;;
8964;SDS011;4517;49.020;12.066;2023-02-25T00:44:38;11.83;;;11.10;;
8964;SDS011;4517;49.020;12.066;2023-02-25T00:47:05;12.40;;;11.60;;
8964;SDS011;4517;49.020;12.066;2023-02-25T00:49:31;12.23;;;11.43;;
8964;SDS011;4517;49.020;12.066;2023-02-25T00:51:57;11.17;;;10.47;;
8964;SDS011;4517;49.020;12.066;2023-02-25T00:54:23;11.87;;;11.17;;
8964;SDS011;4517;49.020;12.066;2023-02-25T00:56:49;12.60;;;11.70;;
8964;SDS011;4517;49.020;12.066;2023-02-25T00:59:15;12.47;;;11.67;;
8964;SDS011;4517;49.020;12.066;2023-02-25T01:01:40;12.67;;;11.70;;
8964;SDS011;4517;49.020;12.066;2023-02-25T01:04:07;11.73;;;10.93;;
8964;SDS011;4517;49.020;12.066;2023-02-25T01:06:33;12.37;;;11.67;;
8964;SDS011;4517;49.020;12.066;2023-02-25T01:09:03;12.80;;;11.80;;
8964;SDS011;4517;49.020;12.066;2023-02-25T01:11:31;13.73;;;12.83;;
8964;SDS011;4517;49.020;12.066;2023-02-25T01:13:59;13.87;;;12.87;;
8964;SDS011;4517;49.020;12.066;2023-02-25T01:16:28;13.60;;;12.40;;
8964;SDS011;4517;49.020;12.066;2023-02-25T01:18:55;13.20;;;12.20;;
8964;SDS011;4517;49.020;12.066;2023-02-25T01:21:42;13.37;;;12.20;;
8964;SDS011;4517;49.020;12.066;2023-02-25T01:24:20;15.40;;;13.67;;
8964;SDS011;4517;49.020;12.066;2023-02-25T01:26:48;14.00;;;12.90;;
8964;SDS011;4517;49.020;12.066;2023-02-25T01:29:16;15.53;;;14.03;;
8964;SDS011;4517;49.020;12.066;2023-02-25T01:31:45;15.70;;;14.30;;
8964;SDS011;4517;49.020;12.066;2023-02-25T01:34:14;15.03;;;13.53;;
8964;SDS011;4517;49.020;12.066;2023-02-25T01:36:41;15.50;;;13.97;;
8964;SDS011;4517;49.020;12.066;2023-02-25T01:39:07;14.83;;;13.57;;
8964;SDS011;4517;49.020;12.066;2023-02-25T01:41:33;15.10;;;13.70;;
8964;SDS011;4517;49.020;12.066;2023-02-25T01:46:30;14.50;;;13.20;;
8964;SDS011;4517;49.020;12.066;2023-02-25T01:48:55;15.07;;;13.87;;
8964;SDS011;4517;49.020;12.066;2023-02-25T01:51:21;16.17;;;14.90;;
8964;SDS011;4517;49.020;12.066;2023-02-25T01:53:51;14.00;;;12.90;;
8964;SDS011;4517;49.020;12.066;2023-02-25T01:56:18;14.60;;;13.50;;
8964;SDS011;4517;49.020;12.066;2023-02-25T01:58:46;14.07;;;13.07;;
8964;SDS011;4517;49.020;12.066;2023-02-25T02:01:14;15.03;;;12.80;;
8964;SDS011;4517;49.020;12.066;2023-02-25T02:03:44;15.30;;;13.77;;
8964;SDS011;4517;49.020;12.066;2023-02-25T02:06:12;14.23;;;13.03;;
8964;SDS011;4517;49.020;12.066;2023-02-25T02:08:41;13.90;;;12.63;;
8964;SDS011;4517;49.020;12.066;2023-02-25T02:11:08;12.90;;;12.00;;
8964;SDS011;4517;49.020;12.066;2023-02-25T02:13:35;13.57;;;12.57;;
8964;SDS011;4517;49.020;12.066;2023-02-25T02:18:48;14.13;;;13.00;;
8964;SDS011;4517;49.020;12.066;2023-02-25T02:21:44;15.50;;;14.17;;
8964;SDS011;4517;49.020;12.066;2023-02-25T02:27:28;14.67;;;13.20;;
8964;SDS011;4517;49.020;12.066;2023-02-25T02:33:17;13.63;;;12.63;;
8964;SDS011;4517;49.020;12.066;2023-02-25T02:39:15;14.73;;;13.50;;
8964;SDS011;4517;49.020;12.066;2023-02-25T02:42:00;13.90;;;12.80;;
8964;SDS011;4517;49.020;12.066;2023-02-25T02:44:41;15.27;;;13.87;;
8964;SDS011;4517;49.020;12.066;2023-02-25T02:47:50;13.20;;;12.20;;
8964;SDS011;4517;49.020;12.066;2023-02-25T02:50:04;14.17;;;12.97;;
8964;SDS011;4517;49.020;12.066;2023-02-25T02:52:31;15.67;;;14.20;;
8964;SDS011;4517;49.020;12.066;2023-02-25T02:55:02;15.10;;;14.00;;
8964;SDS011;4517;49.020;12.066;2023-02-25T02:57:31;15.40;;;14.20;;
8964;SDS011;4517;49.020;12.066;2023-02-25T03:00:00;13.73;;;12.53;;
8964;SDS011;4517;49.020;12.066;2023-02-25T03:02:45;14.03;;;12.97;;
8964;SDS011;4517;49.020;12.066;2023-02-25T03:05:16;14.80;;;13.53;;
8964;SDS011;4517;49.020;12.066;2023-02-25T03:07:45;13.03;;;12.13;;
8964;SDS011;4517;49.020;12.066;2023-02-25T03:10:18;14.70;;;13.40;;
8964;SDS011;4517;49.020;12.066;2023-02-25T03:12:46;13.97;;;12.87;;
8964;SDS011;4517;49.020;12.066;2023-02-25T03:15:12;13.73;;;12.53;;
8964;SDS011;4517;49.020;12.066;2023-02-25T03:17:39;14.93;;;13.53;;
8964;SDS011;4517;49.020;12.066;2023-02-25T03:20:19;14.40;;;13.10;;
8964;SDS011;4517;49.020;12.066;2023-02-25T03:23:00;15.73;;;14.43;;
8964;SDS011;4517;49.020;12.066;2023-02-25T03:25:50;14.03;;;12.83;;
8964;SDS011;4517;49.020;12.066;2023-02-25T03:28:25;18.63;;;12.73;;
8964;SDS011;4517;49.020;12.066;2023-02-25T03:31:06;14.63;;;13.20;;
8964;SDS011;4517;49.020;12.066;2023-02-25T03:33:39;13.33;;;12.43;;
8964;SDS011;4517;49.020;12.066;2023-02-25T03:36:27;14.77;;;13.43;;
8964;SDS011;4517;49.020;12.066;2023-02-25T03:39:02;14.20;;;13.10;;
8964;SDS011;4517;49.020;12.066;2023-02-25T03:41:34;14.13;;;12.47;;
8964;SDS011;4517;49.020;12.066;2023-02-25T03:44:04;18.40;;;12.47;;
8964;SDS011;4517;49.020;12.066;2023-02-25T03:46:33;12.87;;;11.97;;
8964;SDS011;4517;49.020;12.066;2023-02-25T03:49:01;12.77;;;11.53;;
8964;SDS011;4517;49.020;12.066;2023-02-25T03:51:29;13.20;;;12.20;;
8964;SDS011;4517;49.020;12.066;2023-02-25T03:53:59;12.63;;;11.73;;
8964;SDS011;4517;49.020;12.066;2023-02-25T03:56:26;14.40;;;12.90;;
8964;SDS011;4517;49.020;12.066;2023-02-25T03:58:52;13.97;;;12.57;;
8964;SDS011;4517;49.020;12.066;2023-02-25T04:01:20;14.03;;;12.07;;
8964;SDS011;4517;49.020;12.066;2023-02-25T04:03:50;12.97;;;11.87;;
8964;SDS011;4517;49.020;12.066;2023-02-25T04:06:19;14.03;;;13.03;;
8964;SDS011;4517;49.020;12.066;2023-02-25T04:08:48;13.57;;;12.37;;
8964;SDS011;4517;49.020;12.066;2023-02-25T04:11:14;16.50;;;12.70;;
8964;SDS011;4517;49.020;12.066;2023-02-25T04:13:40;13.50;;;12.20;;
8964;SDS011;4517;49.020;12.066;2023-02-25T04:16:05;13.27;;;12.33;;
8964;SDS011;4517;49.020;12.066;2023-02-25T04:18:32;13.37;;;12.27;;
8964;SDS011;4517;49.020;12.066;2023-02-25T04:20:58;14.03;;;13.03;;
8964;SDS011;4517;49.020;12.066;2023-02-25T04:23:24;14.90;;;12.80;;
8964;SDS011;4517;49.020;12.066;2023-02-25T04:25:50;13.47;;;12.47;;
8964;SDS011;4517;49.020;12.066;2023-02-25T04:28:16;15.70;;;12.03;;
8964;SDS011;4517;49.020;12.066;2023-02-25T04:30:42;13.50;;;12.30;;
8964;SDS011;4517;49.020;12.066;2023-02-25T04:33:09;12.67;;;11.70;;
8964;SDS011;4517;49.020;12.066;2023-02-25T04:35:35;12.90;;;11.90;;
8964;SDS011;4517;49.020;12.066;2023-02-25T04:38:01;13.87;;;12.60;;
8964;SDS011;4517;49.020;12.066;2023-02-25T04:40:27;13.13;;;11.93;;
8964;SDS011;4517;49.020;12.066;2023-02-25T04:42:53;11.40;;;10.70;;
8964;SDS011;4517;49.020;12.066;2023-02-25T04:45:18;12.50;;;11.57;;
8964;SDS011;4517;49.020;12.066;2023-02-25T04:47:49;14.20;;;12.90;;
8964;SDS011;4517;49.020;12.066;2023-02-25T04:50:24;12.83;;;11.83;;
8964;SDS011;4517;49.020;12.066;2023-02-25T04:52:50;14.97;;;13.40;;
8964;SDS011;4517;49.020;12.066;2023-02-25T04:55:16;13.20;;;12.10;;
8964;SDS011;4517;49.020;12.066;2023-02-25T04:57:42;13.37;;;12.47;;
8964;SDS011;4517;49.020;12.066;2023-02-25T05:00:12;13.00;;;11.70;;
8964;SDS011;4517;49.020;12.066;2023-02-25T05:02:43;12.93;;;11.93;;
8964;SDS011;4517;49.020;12.066;2023-02-25T05:05:10;13.27;;;12.27;;
8964;SDS011;4517;49.020;12.066;2023-02-25T05:07:35;14.60;;;12.40;;
8964;SDS011;4517;49.020;12.066;2023-02-25T05:10:01;12.53;;;11.73;;
8964;SDS011;4517;49.020;12.066;2023-02-25T05:12:26;13.10;;;11.97;;
8964;SDS011;4517;49.020;12.066;2023-02-25T05:14:52;12.80;;;11.73;;
8964;SDS011;4517;49.020;12.066;2023-02-25T05:17:17;13.93;;;12.60;;
8964;SDS011;4517;49.020;12.066;2023-02-25T05:19:43;13.47;;;12.10;;
8964;SDS011;4517;49.020;12.066;2023-02-25T05:22:08;14.97;;;13.70;;
8964;SDS011;4517;49.020;12.066;2023-02-25T05:24:34;12.97;;;11.67;;
8964;SDS011;4517;49.020;12.066;2023-02-25T05:27:00;17.30;;;12.37;;
8964;SDS011;4517;49.020;12.066;2023-02-25T05:29:32;16.00;;;12.90;;
8964;SDS011;4517;49.020;12.066;2023-02-25T05:31:59;13.00;;;11.97;;
8964;SDS011;4517;49.020;12.066;2023-02-25T05:34:24;11.90;;;10.97;;
8964;SDS011;4517;49.020;12.066;2023-02-25T05:36:50;13.17;;;12.17;;
8964;SDS011;4517;49.020;12.066;2023-02-25T05:39:15;12.30;;;11.23;;
8964;SDS011;4517;49.020;12.066;2023-02-25T05:41:41;12.73;;;11.60;;
8964;SDS011;4517;49.020;12.066;2023-02-25T05:44:07;13.87;;;12.53;;
8964;SDS011;4517;49.020;12.066;2023-02-25T05:46:36;13.23;;;12.13;;
8964;SDS011;4517;49.020;12.066;2023-02-25T05:49:02;12.73;;;11.53;;
8964;SDS011;4517;49.020;12.066;2023-02-25T05:51:28;11.93;;;11.23;;
8964;SDS011;4517;49.020;12.066;2023-02-25T05:53:54;12.53;;;11.33;;
8964;SDS011;4517;49.020;12.066;2023-02-25T05:56:22;14.27;;;10.60;;
8964;SDS011;4517;49.020;12.066;2023-02-25T05:58:49;12.20;;;11.07;;
8964;SDS011;4517;49.020;12.066;2023-02-25T06:01:17;15.30;;;12.13;;
8964;SDS011;4517;49.020;12.066;2023-02-25T06:03:46;13.17;;;11.90;;
8964;SDS011;4517;49.020;12.066;2023-02-25T06:06:14;12.20;;;11.30;;
8964;SDS011;4517;49.020;12.066;2023-02-25T06:08:42;12.27;;;11.37;;
8964;SDS011;4517;49.020;12.066;2023-02-25T06:11:11;13.13;;;11.80;;
8964;SDS011;4517;49.020;12.066;2023-02-25T06:13:41;13.20;;;12.20;;
8964;SDS011;4517;49.020;12.066;2023-02-25T06:16:07;14.27;;;12.90;;
8964;SDS011;4517;49.020;12.066;2023-02-25T06:18:32;12.33;;;11.53;;
8964;SDS011;4517;49.020;12.066;2023-02-25T06:21:02;13.30;;;12.30;;
8964;SDS011;4517;49.020;12.066;2023-02-25T06:23:29;14.33;;;12.37;;
8964;SDS011;4517;49.020;12.066;2023-02-25T06:25:56;12.53;;;11.37;;
8964;SDS011;4517;49.020;12.066;2023-02-25T06:28:22;12.60;;;11.50;;
8964;SDS011;4517;49.020;12.066;2023-02-25T06:30:48;12.50;;;11.43;;
8964;SDS011;4517;49.020;12.066;2023-02-25T06:33:13;12.73;;;11.70;;
8964;SDS011;4517;49.020;12.066;2023-02-25T06:35:39;12.20;;;11.30;;
8964;SDS011;4517;49.020;12.066;2023-02-25T06:38:04;13.17;;;11.73;;
8964;SDS011;4517;49.020;12.066;2023-02-25T06:40:30;12.40;;;11.70;;
8964;SDS011;4517;49.020;12.066;2023-02-25T06:42:58;15.47;;;12.50;;
8964;SDS011;4517;49.020;12.066;2023-02-25T06:45:24;12.30;;;11.20;;
8964;SDS011;4517;49.020;12.066;2023-02-25T06:47:49;20.67;;;19.40;;
8964;SDS011;4517;49.020;12.066;2023-02-25T06:50:15;16.90;;;11.57;;
8964;SDS011;4517;49.020;12.066;2023-02-25T06:52:41;14.53;;;10.47;;
8964;SDS011;4517;49.020;12.066;2023-02-25T06:55:07;12.87;;;11.43;;
8964;SDS011;4517;49.020;12.066;2023-02-25T06:57:35;12.73;;;11.70;;
8964;SDS011;4517;49.020;12.066;2023-02-25T07:00:00;13.40;;;12.20;;
8964;SDS011;4517;49.020;12.066;2023-02-25T07:02:26;12.97;;;11.30;;
8964;SDS011;4517;49.020;12.066;2023-02-25T07:04:52;12.53;;;11.50;;
8964;SDS011;4517;49.020;12.066;2023-02-25T07:07:18;11.97;;;11.07;;
8964;SDS011;4517;49.020;12.066;2023-02-25T07:09:45;12.33;;;11.23;;
8964;SDS011;4517;49.020;12.066;2023-02-25T07:12:13;12.30;;;11.40;;
8964;SDS011;4517;49.020;12.066;2023-02-25T07:14:43;12.40;;;11.10;;
8964;SDS011;4517;49.020;12.066;2023-02-25T07:17:09;12.30;;;11.47;;
8964;SDS011;4517;49.020;12.066;2023-02-25T07:19:34;12.70;;;11.43;;
8964;SDS011;4517;49.020;12.066;2023-02-25T07:22:00;12.73;;;11.63;;
8964;SDS011;4517;49.020;12.066;2023-02-25T07:24:26;22.23;;;20.10;;
8964;SDS011;4517;49.020;12.066;2023-02-25T07:26:51;12.73;;;11.53;;
8964;SDS011;4517;49.020;12.066;2023-02-25T07:29:19;12.33;;;10.93;;
8964;SDS011;4517;49.020;12.066;2023-02-25T07:31:44;12.33;;;11.30;;
8964;SDS011;4517;49.020;12.066;2023-02-25T07:34:10;11.77;;;10.70;;
8964;SDS011;4517;49.020;12.066;2023-02-25T07:36:36;14.97;;;12.00;;
8964;SDS011;4517;49.020;12.066;2023-02-25T07:39:03;12.30;;;11.50;;
8964;SDS011;4517;49.020;12.066;2023-02-25T07:41:30;16.57;;;11.60;;
8964;SDS011;4517;49.020;12.066;2023-02-25T07:43:56;11.30;;;10.50;;
8964;SDS011;4517;49.020;12.066;2023-02-25T07:46:22;12.67;;;11.57;;
8964;SDS011;4517;49.020;12.066;2023-02-25T07:48:47;11.53;;;10.63;;
8964;SDS011;4517;49.020;12.066;2023-02-25T07:51:14;12.77;;;11.60;;
8964;SDS011;4517;49.020;12.066;2023-02-25T07:53:42;11.60;;;10.57;;
8964;SDS011;4517;49.020;12.066;2023-02-25T07:56:09;12.37;;;11.40;;
8964;SDS011;4517;49.020;12.066;2023-02-25T07:58:35;12.70;;;11.80;;
8964;SDS011;4517;49.020;12.066;2023-02-25T08:01:06;12.60;;;11.60;;
8964;SDS011;4517;49.020;12.066;2023-02-25T08:03:51;12.03;;;11.07;;
8964;SDS011;4517;49.020;12.066;2023-02-25T08:06:18;13.43;;;11.97;;
8964;SDS011;4517;49.020;12.066;2023-02-25T08:08:44;12.23;;;11.13;;
8964;SDS011;4517;49.020;12.066;2023-02-25T08:11:12;16.00;;;11.57;;
8964;SDS011;4517;49.020;12.066;2023-02-25T08:13:38;16.30;;;11.63;;
8964;SDS011;4517;49.020;12.066;2023-02-25T08:16:06;16.13;;;11.37;;
8964;SDS011;4517;49.020;12.066;2023-02-25T08:18:33;13.63;;;10.73;;
8964;SDS011;4517;49.020;12.066;2023-02-25T08:20:59;14.63;;;11.33;;
8964;SDS011;4517;49.020;12.066;2023-02-25T08:23:25;12.17;;;11.27;;
8964;SDS011;4517;49.020;12.066;2023-02-25T08:25:52;16.87;;;12.20;;
8964;SDS011;4517;49.020;12.066;2023-02-25T08:28:19;12.60;;;11.47;;
8964;SDS011;4517;49.020;12.066;2023-02-25T08:30:46;12.57;;;11.67;;
8964;SDS011;4517;49.020;12.066;2023-02-25T08:33:12;14.17;;;13.07;;
8964;SDS011;4517;49.020;12.066;2023-02-25T08:35:38;12.80;;;11.77;;
8964;SDS011;4517;49.020;12.066;2023-02-25T08:38:03;12.50;;;11.60;;
8964;SDS011;4517;49.020;12.066;2023-02-25T08:40:29;13.63;;;11.87;;
8964;SDS011;4517;49.020;12.066;2023-02-25T08:42:56;15.27;;;12.40;;
8964;SDS011;4517;49.020;12.066;2023-02-25T08:45:21;11.90;;;11.03;;
8964;SDS011;4517;49.020;12.066;2023-02-25T08:47:47;11.33;;;10.50;;
8964;SDS011;4517;49.020;12.066;2023-02-25T08:50:13;11.23;;;10.43;;
8964;SDS011;4517;49.020;12.066;2023-02-25T08:52:40;12.67;;;11.57;;
8964;SDS011;4517;49.020;12.066;2023-02-25T08:55:07;18.07;;;11.97;;
8964;SDS011;4517;49.020;12.066;2023-02-25T08:57:33;12.90;;;12.00;;
8964;SDS011;4517;49.020;12.066;2023-02-25T08:59:59;13.40;;;12.50;;
8964;SDS011;4517;49.020;12.066;2023-02-25T09:02:24;11.60;;;10.47;;
8964;SDS011;4517;49.020;12.066;2023-02-25T09:04:50;13.97;;;11.00;;
8964;SDS011;4517;49.020;12.066;2023-02-25T09:07:15;12.53;;;11.43;;
8964;SDS011;4517;49.020;12.066;2023-02-25T09:09:41;11.87;;;10.97;;
8964;SDS011;4517;49.020;12.066;2023-02-25T09:12:07;12.20;;;11.20;;
8964;SDS011;4517;49.020;12.066;2023-02-25T09:14:33;13.37;;;12.37;;
8964;SDS011;4517;49.020;12.066;2023-02-25T09:17:02;13.77;;;12.60;;
8964;SDS011;4517;49.020;12.066;2023-02-25T09:19:32;13.20;;;12.00;;
8964;SDS011;4517;49.020;12.066;2023-02-25T09:21:58;14.10;;;12.80;;
8964;SDS011;4517;49.020;12.066;2023-02-25T09:24:23;15.00;;;11.53;;
8964;SDS011;4517;49.020;12.066;2023-02-25T09:26:51;12.93;;;12.13;;
8964;SDS011;4517;49.020;12.066;2023-02-25T09:29:17;12.37;;;11.40;;
8964;SDS011;4517;49.020;12.066;2023-02-25T09:31:42;12.70;;;11.50;;
8964;SDS011;4517;49.020;12.066;2023-02-25T09:34:08;13.57;;;12.50;;
8964;SDS011;4517;49.020;12.066;2023-02-25T09:36:39;13.47;;;12.27;;
8964;SDS011;4517;49.020;12.066;2023-02-25T09:39:05;13.03;;;12.00;;
8964;SDS011;4517;49.020;12.066;2023-02-25T09:41:37;13.23;;;11.90;;
8964;SDS011;4517;49.020;12.066;2023-02-25T09:44:28;13.37;;;12.30;;
8964;SDS011;4517;49.020;12.066;2023-02-25T09:57:50;13.57;;;12.40;;
8964;SDS011;4517;49.020;12.066;2023-02-25T10:00:20;12.57;;;11.30;;
8964;SDS011;4517;49.020;12.066;2023-02-25T10:02:49;14.70;;;12.40;;
8964;SDS011;4517;49.020;12.066;2023-02-25T10:05:27;13.37;;;12.23;;
8964;SDS011;4517;49.020;12.066;2023-02-25T10:08:13;13.27;;;12.17;;
8964;SDS011;4517;49.020;12.066;2023-02-25T10:11:07;12.70;;;11.40;;
8964;SDS011;4517;49.020;12.066;2023-02-25T10:22:15;13.10;;;12.10;;
8964;SDS011;4517;49.020;12.066;2023-02-25T10:25:19;11.33;;;10.30;;
8964;SDS011;4517;49.020;12.066;2023-02-25T10:27:46;12.10;;;11.07;;
8964;SDS011;4517;49.020;12.066;2023-02-25T10:30:22;11.57;;;10.53;;
8964;SDS011;4517;49.020;12.066;2023-02-25T10:32:52;11.13;;;10.43;;
8964;SDS011;4517;49.020;12.066;2023-02-25T10:35:23;12.27;;;11.27;;
8964;SDS011;4517;49.020;12.066;2023-02-25T10:37:50;12.03;;;11.10;;
8964;SDS011;4517;49.020;12.066;2023-02-25T10:40:17;12.40;;;11.40;;
8964;SDS011;4517;49.020;12.066;2023-02-25T10:42:46;12.87;;;11.23;;
8964;SDS011;4517;49.020;12.066;2023-02-25T10:45:25;12.20;;;11.13;;
8964;SDS011;4517;49.020;12.066;2023-02-25T10:50:40;11.90;;;11.00;;
8964;SDS011;4517;49.020;12.066;2023-02-25T10:53:15;11.90;;;10.90;;
8964;SDS011;4517;49.020;12.066;2023-02-25T11:01:11;13.53;;;12.10;;
8964;SDS011;4517;49.020;12.066;2023-02-25T11:06:18;12.17;;;11.03;;
8964;SDS011;4517;49.020;12.066;2023-02-25T11:08:44;13.37;;;12.00;;
8964;SDS011;4517;49.020;12.066;2023-02-25T11:11:14;11.53;;;10.63;;
8964;SDS011;4517;49.020;12.066;2023-02-25T11:13:42;11.57;;;10.47;;
8964;SDS011;4517;49.020;12.066;2023-02-25T11:16:09;12.37;;;11.27;;
8964;SDS011;4517;49.020;12.066;2023-02-25T11:18:37;15.83;;;11.70;;
8964;SDS011;4517;49.020;12.066;2023-02-25T11:21:05;11.90;;;11.00;;
8964;SDS011;4517;49.020;12.066;2023-02-25T11:23:35;11.93;;;11.03;;
8964;SDS011;4517;49.020;12.066;2023-02-25T11:26:06;11.30;;;10.37;;
8964;SDS011;4517;49.020;12.066;2023-02-25T11:28:37;12.30;;;11.30;;
8964;SDS011;4517;49.020;12.066;2023-02-25T11:31:13;11.07;;;10.07;;
8964;SDS011;4517;49.020;12.066;2023-02-25T11:33:44;12.20;;;11.33;;
8964;SDS011;4517;49.020;12.066;2023-02-25T11:36:19;11.97;;;10.83;;
8964;SDS011;4517;49.020;12.066;2023-02-25T11:38:49;11.77;;;11.07;;
8964;SDS011;4517;49.020;12.066;2023-02-25T11:41:32;12.73;;;11.53;;
8964;SDS011;4517;49.020;12.066;2023-02-25T11:44:01;12.20;;;11.30;;
8964;SDS011;4517;49.020;12.066;2023-02-25T11:46:43;12.77;;;11.80;;
8964;SDS011;4517;49.020;12.066;2023-02-25T11:49:18;13.07;;;12.17;;
8964;SDS011;4517;49.020;12.066;2023-02-25T11:58:15;13.23;;;12.03;;
8964;SDS011;4517;49.020;12.066;2023-02-25T12:01:12;12.33;;;11.53;;
8964;SDS011;4517;49.020;12.066;2023-02-25T12:03:58;15.90;;;12.00;;
8964;SDS011;4517;49.020;12.066;2023-02-25T12:14:25;10.73;;;10.03;;
8964;SDS011;4517;49.020;12.066;2023-02-25T12:23:16;11.10;;;10.40;;
8964;SDS011;4517;49.020;12.066;2023-02-25T12:37:09;11.57;;;10.40;;
8964;SDS011;4517;49.020;12.066;2023-02-25T12:40:03;12.30;;;11.50;;
8964;SDS011;4517;49.020;12.066;2023-02-25T12:54:09;13.33;;;11.00;;
8964;SDS011;4517;49.020;12.066;2023-02-25T12:56:51;11.90;;;11.00;;
8964;SDS011;4517;49.020;12.066;2023-02-25T13:02:25;10.93;;;10.27;;
8964;SDS011;4517;49.020;12.066;2023-02-25T13:05:08;11.30;;;10.53;;
8964;SDS011;4517;49.020;12.066;2023-02-25T13:10:55;12.23;;;10.60;;
8964;SDS011;4517;49.020;12.066;2023-02-25T13:13:47;10.63;;;10.07;;
8964;SDS011;4517;49.020;12.066;2023-02-25T13:17:13;11.83;;;10.90;;
8964;SDS011;4517;49.020;12.066;2023-02-25T13:24:58;13.60;;;12.80;;
8964;SDS011;4517;49.020;12.066;2023-02-25T13:27:52;13.10;;;12.10;;
8964;SDS011;4517;49.020;12.066;2023-02-25T13:30:25;14.27;;;13.37;;
8964;SDS011;4517;49.020;12.066;2023-02-25T13:44:17;17.70;;;16.70;;
8964;SDS011;4517;49.020;12.066;2023-02-25T13:55:22;25.70;;;23.47;;
8964;SDS011;4517;49.020;12.066;2023-02-25T13:58:22;24.77;;;23.27;;
8964;SDS011;4517;49.020;12.066;2023-02-25T14:17:07;24.53;;;22.90;;
8964;SDS011;4517;49.020;12.066;2023-02-25T14:19:55;23.43;;;22.00;;
8964;SDS011;4517;49.020;12.066;2023-02-25T14:22:31;23.73;;;21.80;;
8964;SDS011;4517;49.020;12.066;2023-02-25T14:25:21;24.50;;;23.00;;
8964;SDS011;4517;49.020;12.066;2023-02-25T14:31:09;23.07;;;21.47;;
8964;SDS011;4517;49.020;12.066;2023-02-25T14:36:41;26.60;;;24.57;;
8964;SDS011;4517;49.020;12.066;2023-02-25T14:39:24;24.90;;;23.40;;
8964;SDS011;4517;49.020;12.066;2023-02-25T14:42:02;25.60;;;23.90;;
8964;SDS011;4517;49.020;12.066;2023-02-25T14:44:54;24.63;;;22.93;;
8964;SDS011;4517;49.020;12.066;2023-02-25T14:47:35;28.53;;;26.60;;
8964;SDS011;4517;49.020;12.066;2023-02-25T14:50:28;28.97;;;27.00;;
8964;SDS011;4517;49.020;12.066;2023-02-25T14:56:03;34.73;;;32.47;;
8964;SDS011;4517;49.020;12.066;2023-02-25T15:01:35;31.70;;;29.60;;
8964;SDS011;4517;49.020;12.066;2023-02-25T15:18:09;28.07;;;26.13;;
8964;SDS011;4517;49.020;12.066;2023-02-25T15:20:51;26.20;;;24.17;;
8964;SDS011;4517;49.020;12.066;2023-02-25T15:23:17;28.53;;;26.63;;
8964;SDS011;4517;49.020;12.066;2023-02-25T15:25:45;28.23;;;26.43;;
8964;SDS011;4517;49.020;12.066;2023-02-25T15:33:34;26.10;;;24.30;;
8964;SDS011;4517;49.020;12.066;2023-02-25T15:36:01;28.30;;;26.60;;
8964;SDS011;4517;49.020;12.066;2023-02-25T15:38:46;27.97;;;26.27;;
8964;SDS011;4517;49.020;12.066;2023-02-25T15:43:50;30.60;;;28.70;;
8964;SDS011;4517;49.020;12.066;2023-02-25T15:52:14;36.63;;;34.30;;
8964;SDS011;4517;49.020;12.066;2023-02-25T15:56:57;26.60;;;24.70;;
8964;SDS011;4517;49.020;12.066;2023-02-25T15:59:38;26.13;;;24.33;;
8964;SDS011;4517;49.020;12.066;2023-02-25T16:04:57;26.70;;;25.20;;
8964;SDS011;4517;49.020;12.066;2023-02-25T16:07:31;27.53;;;25.93;;
8964;SDS011;4517;49.020;12.066;2023-02-25T16:10:17;26.03;;;24.43;;
8964;SDS011;4517;49.020;12.066;2023-02-25T16:12:53;29.07;;;26.97;;
8964;SDS011;4517;49.020;12.066;2023-02-25T16:15:26;30.07;;;28.37;;
8964;SDS011;4517;49.020;12.066;2023-02-25T16:18:22;25.70;;;24.17;;
8964;SDS011;4517;49.020;12.066;2023-02-25T16:20:57;25.10;;;23.63;;
8964;SDS011;4517;49.020;12.066;2023-02-25T16:23:29;27.80;;;26.10;;
8964;SDS011;4517;49.020;12.066;2023-02-25T16:29:01;23.90;;;22.30;;
8964;SDS011;4517;49.020;12.066;2023-02-25T16:39:43;21.10;;;19.90;;
8964;SDS011;4517;49.020;12.066;2023-02-25T16:42:13;21.77;;;20.57;;
8964;SDS011;4517;49.020;12.066;2023-02-25T16:44:43;24.33;;;22.20;;
8964;SDS011;4517;49.020;12.066;2023-02-25T16:49:50;21.03;;;19.73;;
8964;SDS011;4517;49.020;12.066;2023-02-25T16:52:31;19.70;;;18.70;;
8964;SDS011;4517;49.020;12.066;2023-02-25T16:55:01;20.30;;;19.10;;
8964;SDS011;4517;49.020;12.066;2023-02-25T16:57:32;20.23;;;18.93;;
8964;SDS011;4517;49.020;12.066;2023-02-25T17:02:32;20.03;;;18.83;;
8964;SDS011;4517;49.020;12.066;2023-02-25T17:05:09;17.30;;;16.30;;
8964;SDS011;4517;49.020;12.066;2023-02-25T17:07:54;17.47;;;16.57;;
8964;SDS011;4517;49.020;12.066;2023-02-25T17:10:25;18.43;;;17.33;;
8964;SDS011;4517;49.020;12.066;2023-02-25T17:12:53;18.47;;;17.27;;
8964;SDS011;4517;49.020;12.066;2023-02-25T17:15:21;17.90;;;16.90;;
8964;SDS011;4517;49.020;12.066;2023-02-25T17:17:53;17.73;;;16.73;;
8964;SDS011;4517;49.020;12.066;2023-02-25T17:20:26;17.73;;;16.63;;
8964;SDS011;4517;49.020;12.066;2023-02-25T17:22:53;18.60;;;17.40;;
8964;SDS011;4517;49.020;12.066;2023-02-25T17:25:20;19.07;;;17.40;;
8964;SDS011;4517;49.020;12.066;2023-02-25T17:27:51;18.43;;;17.23;;
8964;SDS011;4517;49.020;12.066;2023-02-25T17:30:39;18.63;;;17.33;;
8964;SDS011;4517;49.020;12.066;2023-02-25T17:33:03;18.23;;;17.03;;
8964;SDS011;4517;49.020;12.066;2023-02-25T17:35:30;18.00;;;16.80;;
8964;SDS011;4517;49.020;12.066;2023-02-25T17:37:56;18.33;;;17.03;;
8964;SDS011;4517;49.020;12.066;2023-02-25T17:40:26;18.67;;;17.47;;
8964;SDS011;4517;49.020;12.066;2023-02-25T17:45:58;17.97;;;16.57;;
8964;SDS011;4517;49.020;12.066;2023-02-25T17:48:31;19.20;;;17.70;;
8964;SDS011;4517;49.020;12.066;2023-02-25T17:51:02;19.50;;;17.80;;
8964;SDS011;4517;49.020;12.066;2023-02-25T17:53:40;18.13;;;16.77;;
8964;SDS011;4517;49.020;12.066;2023-02-25T17:58:59;19.30;;;17.97;;
8964;SDS011;4517;49.020;12.066;2023-02-25T18:01:51;18.33;;;17.13;;
8964;SDS011;4517;49.020;12.066;2023-02-25T18:06:49;19.30;;;18.00;;
8964;SDS011;4517;49.020;12.066;2023-02-25T18:12:00;18.67;;;17.57;;
8964;SDS011;4517;49.020;12.066;2023-02-25T18:14:35;17.57;;;16.50;;
8964;SDS011;4517;49.020;12.066;2023-02-25T18:17:15;17.80;;;16.43;;
8964;SDS011;4517;49.020;12.066;2023-02-25T18:19:48;19.40;;;18.30;;
8964;SDS011;4517;49.020;12.066;2023-02-25T18:22:31;17.53;;;16.53;;